createdAt,value
2022-08-17T00:04:01.816Z,25.38
2022-08-17T00:06:31.718Z,32.60
2022-08-17T00:09:04.324Z,29.90
2022-08-17T00:11:35.288Z,35.97
2022-08-17T00:14:08.406Z,25.17
2022-08-17T00:16:56.572Z,24.00
2022-08-17T00:19:29.975Z,34.30
2022-08-17T00:22:33.077Z,23.15
2022-08-17T00:24:48.383Z,26.55
2022-08-17T00:27:17.279Z,25.50
2022-08-17T00:29:47.833Z,25.30
2022-08-17T00:33:13.838Z,26.60
2022-08-17T00:35:06.916Z,26.88
2022-08-17T00:37:34.429Z,27.05
2022-08-17T00:40:01.933Z,27.17
2022-08-17T00:42:31.293Z,23.65
2022-08-17T00:44:59.534Z,29.73
2022-08-17T00:47:27.099Z,24.77
2022-08-17T00:49:54.485Z,30.75
2022-08-17T00:52:27.715Z,25.15
2022-08-17T00:54:55.885Z,20.40
2022-08-17T00:57:33.369Z,25.38
2022-08-17T01:00:09.546Z,27.38
2022-08-17T01:02:42.997Z,23.52
2022-08-17T01:05:19.955Z,23.10
2022-08-17T01:07:51.138Z,20.45
2022-08-17T01:10:57.116Z,21.88
2022-08-17T01:13:13.113Z,23.02
2022-08-17T01:16:07.102Z,30.77
2022-08-17T01:18:35.730Z,28.83
2022-08-17T01:21:26.507Z,25.50
2022-08-17T01:23:54.029Z,21.88
2022-08-17T01:26:23.165Z,23.02
2022-08-17T01:28:53.625Z,22.70
2022-08-17T01:31:28.020Z,24.50
2022-08-17T01:34:01.783Z,31.10
2022-08-17T01:36:29.983Z,26.13
2022-08-17T01:38:57.510Z,25.17
2022-08-17T01:41:25.104Z,27.85
2022-08-17T01:44:01.833Z,24.13
2022-08-17T01:46:33.745Z,28.63
2022-08-17T01:49:01.777Z,26.15
2022-08-17T01:51:33.838Z,27.00
2022-08-17T01:54:06.085Z,24.63
2022-08-17T01:56:37.453Z,24.20
2022-08-17T01:59:05.273Z,27.08
2022-08-17T02:01:34.946Z,29.02
2022-08-17T02:04:05.320Z,23.33
2022-08-17T02:06:45.183Z,36.50
2022-08-17T02:09:26.281Z,22.58
2022-08-17T02:12:37.350Z,31.17
2022-08-17T02:14:48.274Z,31.02
2022-08-17T02:17:16.558Z,23.23
2022-08-17T02:19:43.970Z,25.73
2022-08-17T02:22:12.625Z,29.83
2022-08-17T02:24:58.289Z,27.63
2022-08-17T02:27:28.965Z,29.83
2022-08-17T02:29:56.285Z,27.10
2022-08-17T02:32:28.040Z,26.95
2022-08-17T02:34:57.652Z,25.73
2022-08-17T02:37:26.708Z,25.88
2022-08-17T02:39:58.478Z,27.52
2022-08-17T02:42:35.441Z,33.40
2022-08-17T02:45:06.567Z,25.38
2022-08-17T02:47:35.074Z,24.50
2022-08-17T02:50:03.375Z,25.75
2022-08-17T02:52:42.294Z,28.83
2022-08-17T02:55:27.653Z,25.55
2022-08-17T02:57:55.581Z,24.85
2022-08-17T03:00:35.665Z,27.50
2022-08-17T03:03:05.747Z,28.48
2022-08-17T03:05:35.758Z,30.25
2022-08-17T03:08:04.120Z,31.00
2022-08-17T03:10:34.873Z,36.13
2022-08-17T03:13:02.658Z,31.83
2022-08-17T03:15:33.813Z,38.20
2022-08-17T03:18:03.017Z,33.90
2022-08-17T03:20:32.719Z,33.53
2022-08-17T03:23:01.917Z,32.80
2022-08-17T03:25:35.684Z,31.27
2022-08-17T03:28:05.503Z,35.05
2022-08-17T03:30:34.860Z,37.65
2022-08-17T03:33:06.838Z,41.17
2022-08-17T03:35:40.604Z,34.67
2022-08-17T03:38:10.871Z,34.40
2022-08-17T03:40:58.020Z,35.45
2022-08-17T03:43:31.324Z,34.95
2022-08-17T03:46:28.486Z,36.45
2022-08-17T03:49:23.198Z,38.30
2022-08-17T03:52:09.675Z,34.60
2022-08-17T03:54:55.833Z,36.97
2022-08-17T03:57:24.591Z,39.70
2022-08-17T03:59:53.494Z,39.70
2022-08-17T04:02:27.112Z,37.95
2022-08-17T04:04:55.100Z,35.15
2022-08-17T04:07:28.138Z,35.92
2022-08-17T04:09:55.693Z,36.47
2022-08-17T04:12:25.232Z,36.97
2022-08-17T04:14:54.956Z,32.15
2022-08-17T04:17:29.630Z,31.75
2022-08-17T04:19:57.486Z,32.40
2022-08-17T04:22:33.070Z,34.78
2022-08-17T04:25:20.367Z,34.65
2022-08-17T04:27:49.061Z,35.70
2022-08-17T04:30:17.130Z,33.97
2022-08-17T04:33:08.992Z,35.95
2022-08-17T04:35:43.503Z,34.75
2022-08-17T04:38:17.179Z,38.17
2022-08-17T04:41:03.196Z,35.78
2022-08-17T04:43:34.621Z,39.35
2022-08-17T04:46:05.528Z,36.95
2022-08-17T04:48:37.571Z,38.25
2022-08-17T04:51:10.205Z,34.47
2022-08-17T04:53:40.134Z,34.88
2022-08-17T04:56:11.680Z,36.65
2022-08-17T04:58:46.477Z,40.33
2022-08-17T05:01:16.908Z,36.88
2022-08-17T05:03:52.270Z,35.88
2022-08-17T05:06:20.213Z,40.95
2022-08-17T05:08:47.824Z,49.72
2022-08-17T05:11:18.515Z,45.30
2022-08-17T05:13:50.269Z,48.88
2022-08-17T05:16:20.308Z,40.78
2022-08-17T05:18:48.738Z,43.60
2022-08-17T05:21:17.163Z,37.20
2022-08-17T05:23:54.896Z,39.92
2022-08-17T05:26:26.945Z,41.03
2022-08-17T05:29:00.558Z,44.70
2022-08-17T05:31:31.041Z,48.72
2022-08-17T05:33:58.461Z,49.13
2022-08-17T05:36:42.691Z,37.17
2022-08-17T05:39:16.451Z,35.45
2022-08-17T05:41:48.736Z,33.60
2022-08-17T05:44:17.225Z,34.00
2022-08-17T05:46:51.363Z,34.05
2022-08-17T05:49:27.335Z,38.17
2022-08-17T05:52:21.156Z,41.03
2022-08-17T05:55:00.136Z,33.45
2022-08-17T05:57:53.833Z,29.02
2022-08-17T06:00:30.032Z,34.97
2022-08-17T06:03:10.072Z,33.58
2022-08-17T06:05:46.666Z,35.33
2022-08-17T06:08:32.536Z,35.25
2022-08-17T06:11:39.354Z,32.67
2022-08-17T06:14:38.855Z,27.05
2022-08-17T06:17:14.114Z,26.38
2022-08-17T06:20:00.439Z,27.23
2022-08-17T06:22:33.660Z,36.78
2022-08-17T06:25:10.238Z,28.13
2022-08-17T06:27:45.311Z,30.65
2022-08-17T06:30:27.541Z,33.25
2022-08-17T06:33:02.477Z,28.63
2022-08-17T06:35:38.103Z,30.75
2022-08-17T06:38:38.238Z,31.30
2022-08-17T06:41:15.368Z,27.08
2022-08-17T06:43:48.023Z,31.05
2022-08-17T06:46:30.907Z,26.50
2022-08-17T06:49:12.059Z,29.02
2022-08-17T06:51:50.795Z,28.75
2022-08-17T06:54:46.256Z,30.10
2022-08-17T06:57:30.701Z,30.90
2022-08-17T07:00:07.729Z,34.85
2022-08-17T07:03:07.089Z,26.40
2022-08-17T07:05:37.393Z,27.50
2022-08-17T07:08:17.223Z,31.75
2022-08-17T07:10:56.060Z,33.40
2022-08-17T07:13:29.630Z,30.75
2022-08-17T07:16:20.568Z,33.72
2022-08-17T07:18:51.149Z,30.35
2022-08-17T07:21:38.790Z,29.33
2022-08-17T07:24:29.268Z,33.83
2022-08-17T07:27:27.728Z,30.55
2022-08-17T07:30:11.207Z,28.35
2022-08-17T07:32:48.481Z,25.83
2022-08-17T07:35:23.361Z,28.27
2022-08-17T07:38:25.664Z,26.27
2022-08-17T07:40:58.137Z,28.55
2022-08-17T07:43:29.715Z,31.48
2022-08-17T07:46:40.512Z,25.33
2022-08-17T07:49:15.344Z,26.23
2022-08-17T07:51:47.240Z,27.85
2022-08-17T07:54:23.907Z,29.30
2022-08-17T07:56:55.820Z,25.63
2022-08-17T07:59:24.942Z,28.40
2022-08-17T08:01:58.321Z,33.47
2022-08-17T08:07:29.203Z,30.65
2022-08-17T08:10:01.483Z,37.35
2022-08-17T08:12:45.889Z,30.63
2022-08-17T08:15:19.685Z,33.55
2022-08-17T08:17:54.335Z,30.88
2022-08-17T08:20:55.034Z,36.33
2022-08-17T08:23:31.347Z,32.72
2022-08-17T08:26:18.792Z,34.13
2022-08-17T08:29:10.540Z,31.13
2022-08-17T08:32:04.130Z,33.85
2022-08-17T08:35:08.368Z,45.60
2022-08-17T08:38:26.005Z,47.40
2022-08-17T08:41:25.498Z,56.58
2022-08-17T08:44:22.300Z,53.22
2022-08-17T08:47:35.554Z,50.97
2022-08-17T08:50:36.921Z,52.05
2022-08-17T08:53:11.241Z,44.33
2022-08-17T08:55:46.582Z,41.42
2022-08-17T08:58:41.291Z,44.25
2022-08-17T09:01:31.618Z,49.55
2022-08-17T09:04:24.669Z,47.85
2022-08-17T09:07:28.888Z,49.75
2022-08-17T09:10:12.037Z,59.00
2022-08-17T09:13:05.970Z,52.70
2022-08-17T09:15:49.714Z,56.50
2022-08-17T09:19:01.610Z,57.13
2022-08-17T09:21:47.888Z,57.70
2022-08-17T09:24:34.598Z,59.47
2022-08-17T09:27:25.809Z,54.55
2022-08-17T09:30:00.093Z,52.55
2022-08-17T09:32:41.519Z,58.28
2022-08-17T09:35:37.062Z,55.83
2022-08-17T09:38:25.068Z,53.33
2022-08-17T09:41:23.752Z,56.15
2022-08-17T09:43:56.745Z,62.58
2022-08-17T09:46:38.804Z,52.35
2022-08-17T09:49:30.326Z,58.75
2022-08-17T09:52:25.398Z,56.63
2022-08-17T09:54:55.758Z,53.63
2022-08-17T10:00:21.615Z,52.67
2022-08-17T10:02:55.283Z,52.03
2022-08-17T10:05:40.460Z,50.47
2022-08-17T10:08:23.151Z,47.67
2022-08-17T10:11:19.369Z,48.38
2022-08-17T10:14:36.039Z,45.53
2022-08-17T10:17:34.324Z,49.47
2022-08-17T10:20:04.512Z,48.25
2022-08-17T10:23:08.875Z,50.45
2022-08-17T10:25:59.803Z,50.60
2022-08-17T10:28:32.860Z,48.40
2022-08-17T10:31:33.218Z,50.42
2022-08-17T10:34:04.625Z,51.22
2022-08-17T10:36:56.328Z,50.05
2022-08-17T10:39:52.032Z,50.58
2022-08-17T10:42:33.012Z,50.97
2022-08-17T10:45:26.488Z,51.38
2022-08-17T10:48:06.388Z,48.10
2022-08-17T10:50:58.608Z,53.88
2022-08-17T10:53:32.449Z,43.72
2022-08-17T10:56:16.406Z,42.90
2022-08-17T10:58:55.793Z,45.42
2022-08-17T11:01:38.290Z,46.90
2022-08-17T11:04:24.314Z,47.95
2022-08-17T11:07:06.456Z,45.95
2022-08-17T11:09:55.262Z,45.92
2022-08-17T11:12:42.235Z,45.65
2022-08-17T11:15:50.666Z,45.83
2022-08-17T11:18:39.542Z,44.65
2022-08-17T11:21:52.113Z,40.47
2022-08-17T11:24:44.834Z,43.33
2022-08-17T11:27:35.110Z,47.97
2022-08-17T11:30:16.660Z,45.05
2022-08-17T11:32:54.539Z,49.05
2022-08-17T11:35:22.503Z,51.38
2022-08-17T11:38:16.257Z,45.05
2022-08-17T11:41:18.078Z,44.40
2022-08-17T11:44:16.531Z,48.63
2022-08-17T11:47:30.745Z,48.55
2022-08-17T11:50:36.957Z,49.70
2022-08-17T11:53:05.492Z,45.17
2022-08-17T11:55:39.568Z,46.17
2022-08-17T11:58:31.039Z,48.22
2022-08-17T12:01:13.640Z,51.17
2022-08-17T12:03:55.385Z,50.13
2022-08-17T12:06:43.641Z,48.63
2022-08-17T12:09:30.897Z,49.58
2022-08-17T12:12:14.468Z,51.22
2022-08-17T12:17:40.577Z,54.47
2022-08-17T12:20:33.578Z,49.92
2022-08-17T12:23:15.334Z,51.42
2022-08-17T12:25:59.243Z,45.17
2022-08-17T12:28:30.073Z,42.95
2022-08-17T12:31:16.423Z,40.95
2022-08-17T12:33:47.483Z,42.67
2022-08-17T12:36:22.451Z,45.17
2022-08-17T12:38:51.367Z,43.58
2022-08-17T12:41:50.788Z,42.90
2022-08-17T12:44:23.602Z,44.53
2022-08-17T12:47:21.021Z,42.15
2022-08-17T12:50:04.050Z,44.65
2022-08-17T12:52:33.163Z,39.60
2022-08-17T12:55:08.762Z,40.45
2022-08-17T12:57:39.186Z,37.78
2022-08-17T13:00:30.743Z,39.75
2022-08-17T13:03:22.635Z,41.72
2022-08-17T13:05:52.851Z,42.47
2022-08-17T13:08:28.192Z,37.22
2022-08-17T13:11:00.873Z,40.03
2022-08-17T13:13:31.990Z,40.67
2022-08-17T13:16:03.439Z,38.38
2022-08-17T13:18:37.065Z,35.60
2022-08-17T13:21:05.621Z,34.25
2022-08-17T13:23:34.739Z,33.20
2022-08-17T13:26:07.064Z,36.63
2022-08-17T13:28:36.908Z,34.03
2022-08-17T13:31:28.708Z,34.47
2022-08-17T13:34:41.133Z,40.20
2022-08-17T13:37:29.305Z,43.28
2022-08-17T13:40:13.327Z,36.72
2022-08-17T13:42:53.558Z,35.05
2022-08-17T13:45:36.605Z,43.97
2022-08-17T13:48:34.774Z,34.92
2022-08-17T13:51:07.385Z,37.20
2022-08-17T13:53:52.810Z,35.60
2022-08-17T13:56:40.749Z,33.95
2022-08-17T13:59:12.840Z,40.17
2022-08-17T14:01:54.086Z,37.67
2022-08-17T14:04:28.810Z,38.97
2022-08-17T14:07:01.518Z,39.15
2022-08-17T14:09:41.911Z,36.05
2022-08-17T14:14:40.825Z,40.50
2022-08-17T14:17:08.193Z,36.88
2022-08-17T14:19:36.225Z,39.17
2022-08-17T14:22:05.204Z,42.85
2022-08-17T14:24:41.161Z,43.13
2022-08-17T14:27:12.302Z,43.33
2022-08-17T14:29:41.410Z,41.95
2022-08-17T14:32:20.261Z,44.05
2022-08-17T14:34:50.440Z,39.55
2022-08-17T14:37:19.653Z,42.88
2022-08-17T14:39:47.500Z,41.22
2022-08-17T14:42:16.246Z,42.55
2022-08-17T14:44:43.514Z,44.08
2022-08-17T14:47:15.928Z,41.40
2022-08-17T14:49:43.893Z,43.80
2022-08-17T14:52:22.529Z,44.35
2022-08-17T14:54:52.022Z,41.05
2022-08-17T14:57:33.156Z,48.93
2022-08-17T15:00:02.769Z,41.85
2022-08-17T15:02:31.051Z,48.22
2022-08-17T15:05:04.503Z,41.42
2022-08-17T15:07:31.889Z,42.38
2022-08-17T15:10:01.903Z,42.20
2022-08-17T15:12:33.559Z,42.90
2022-08-17T15:15:05.682Z,41.72
2022-08-17T15:17:44.468Z,41.05
2022-08-17T15:20:18.627Z,42.53
2022-08-17T15:23:07.313Z,40.90
2022-08-17T15:25:34.819Z,39.58
2022-08-17T15:28:04.777Z,44.90
2022-08-17T15:30:35.592Z,40.92
2022-08-17T15:33:04.167Z,42.45
2022-08-17T15:35:34.040Z,40.77
2022-08-17T15:38:10.176Z,42.92
2022-08-17T15:40:46.276Z,40.22
2022-08-17T15:43:26.674Z,44.65
2022-08-17T15:46:19.067Z,43.05
2022-08-17T15:48:49.876Z,43.80
2022-08-17T15:51:26.105Z,41.78
2022-08-17T15:53:59.731Z,41.22
2022-08-17T15:56:32.208Z,45.55
2022-08-17T15:59:00.031Z,38.85
2022-08-17T16:04:06.624Z,41.00
2022-08-17T16:06:34.931Z,45.63
2022-08-17T16:09:02.503Z,45.25
2022-08-17T16:11:29.848Z,42.85
2022-08-17T16:13:59.456Z,47.72
2022-08-17T16:16:29.295Z,39.80
2022-08-17T16:18:58.502Z,44.95
2022-08-17T16:21:27.217Z,51.03
2022-08-17T16:24:01.511Z,49.70
2022-08-17T16:26:30.793Z,58.13
2022-08-17T16:29:00.458Z,55.53
2022-08-17T16:31:29.781Z,58.08
2022-08-17T16:34:15.858Z,61.75
2022-08-17T16:36:55.332Z,71.50
2022-08-17T16:39:29.018Z,63.90
2022-08-17T16:41:57.223Z,64.55
2022-08-17T16:44:26.907Z,62.17
2022-08-17T16:46:54.075Z,65.05
2022-08-17T16:49:35.865Z,67.53
2022-08-17T16:52:11.818Z,66.22
2022-08-17T16:54:44.095Z,64.20
2022-08-17T16:57:17.594Z,62.75
2022-08-17T16:59:50.331Z,63.95
2022-08-17T17:02:26.498Z,64.88
2022-08-17T17:05:03.371Z,61.25
2022-08-17T17:07:51.147Z,63.97
2022-08-17T17:10:24.474Z,63.20
2022-08-17T17:13:03.014Z,64.60
2022-08-17T17:15:50.679Z,64.30
2022-08-17T17:18:20.859Z,71.93
2022-08-17T17:20:57.518Z,65.95
2022-08-17T17:23:47.260Z,70.95
2022-08-17T17:26:41.587Z,64.97
2022-08-17T17:29:33.979Z,67.45
2022-08-17T17:32:39.121Z,68.15
2022-08-17T17:35:12.421Z,65.15
2022-08-17T17:37:43.281Z,58.95
2022-08-17T17:40:25.272Z,57.05
2022-08-17T17:43:05.430Z,72.90
2022-08-17T17:45:59.007Z,60.28
2022-08-17T17:48:48.340Z,56.22
2022-08-17T17:52:09.419Z,56.88
2022-08-17T17:54:41.028Z,54.35
2022-08-17T17:57:22.421Z,54.63
2022-08-17T18:00:12.106Z,54.83
2022-08-17T18:02:51.472Z,54.92
2022-08-17T18:05:46.850Z,59.42
2022-08-17T18:08:46.396Z,58.47
2022-08-17T18:11:24.219Z,60.42
2022-08-17T18:14:16.523Z,61.15
2022-08-17T18:16:45.782Z,65.68
2022-08-17T18:19:18.254Z,58.50
2022-08-17T18:21:50.665Z,60.90
2022-08-17T18:24:33.410Z,62.10
2022-08-17T18:27:08.647Z,60.72
2022-08-17T18:29:50.766Z,57.20
2022-08-17T18:32:29.735Z,61.78
2022-08-17T18:35:09.694Z,65.53
2022-08-17T18:37:58.829Z,64.03
2022-08-17T18:40:37.128Z,65.85
2022-08-17T18:43:44.113Z,70.35
2022-08-17T18:46:28.355Z,70.13
2022-08-17T18:49:25.207Z,70.57
2022-08-17T18:52:13.771Z,68.47
2022-08-17T18:54:59.580Z,63.78
2022-08-17T18:57:48.032Z,62.72
2022-08-17T19:00:20.198Z,67.68
2022-08-17T19:02:57.167Z,61.42
2022-08-17T19:05:40.017Z,59.47
2022-08-17T19:08:28.546Z,61.88
2022-08-17T19:11:20.881Z,65.05
2022-08-17T19:14:12.478Z,68.60
2022-08-17T19:16:55.858Z,65.97
2022-08-17T19:19:33.521Z,70.57
2022-08-17T19:22:13.807Z,74.53
2022-08-17T19:25:03.537Z,67.93
2022-08-17T19:27:46.426Z,64.57
2022-08-17T19:30:20.490Z,63.03
2022-08-17T19:32:48.253Z,61.95
2022-08-17T19:35:31.140Z,61.85
2022-08-17T19:38:12.970Z,55.88
2022-08-17T19:41:01.381Z,57.45
2022-08-17T19:43:53.586Z,55.60
2022-08-17T19:47:02.813Z,61.92
2022-08-17T19:50:04.971Z,61.70
2022-08-17T19:53:02.428Z,60.25
2022-08-17T19:55:48.953Z,64.60
2022-08-17T19:58:27.955Z,66.80
2022-08-17T20:00:55.801Z,62.83
2022-08-17T20:03:33.632Z,62.78
2022-08-17T20:06:14.204Z,67.65
2022-08-17T20:09:15.172Z,65.30
2022-08-17T20:11:52.634Z,61.53
2022-08-17T20:14:24.661Z,63.65
2022-08-17T20:16:53.469Z,63.15
2022-08-17T20:19:31.798Z,67.78
2022-08-17T20:22:11.854Z,66.53
2022-08-17T20:24:48.335Z,65.72
2022-08-17T20:27:17.894Z,73.50
2022-08-17T20:30:13.053Z,69.30
2022-08-17T20:32:52.269Z,68.32
2022-08-17T20:35:34.881Z,64.43
2022-08-17T20:38:11.154Z,67.15
2022-08-17T20:40:54.629Z,65.80
2022-08-17T20:43:32.983Z,66.05
2022-08-17T20:46:26.930Z,66.63
2022-08-17T20:49:00.089Z,69.72
2022-08-17T20:51:28.911Z,75.65
2022-08-17T20:53:58.419Z,72.78
2022-08-17T20:56:44.757Z,65.38
2022-08-17T20:59:22.581Z,73.00
2022-08-17T21:02:19.005Z,65.57
2022-08-17T21:04:57.060Z,75.45
2022-08-17T21:07:29.938Z,78.13
2022-08-17T21:10:17.121Z,70.57
2022-08-17T21:13:02.951Z,71.05
2022-08-17T21:15:36.037Z,70.53
2022-08-17T21:18:26.110Z,72.13
2022-08-17T21:20:59.697Z,72.68
2022-08-17T21:23:42.623Z,68.25
2022-08-17T21:26:18.260Z,70.43
2022-08-17T21:29:30.322Z,67.95
2022-08-17T21:32:09.664Z,67.03
2022-08-17T21:34:43.853Z,70.97
2022-08-17T21:37:29.877Z,71.57
2022-08-17T21:40:11.513Z,69.97
2022-08-17T21:42:48.320Z,77.20
2022-08-17T21:45:35.725Z,77.43
2022-08-17T21:48:15.074Z,75.43
2022-08-17T21:50:46.495Z,72.68
2022-08-17T21:53:32.208Z,77.65
2022-08-17T21:56:01.390Z,81.30
2022-08-17T21:58:32.660Z,92.13
2022-08-17T22:01:19.521Z,103.47
2022-08-17T22:03:58.416Z,108.80
2022-08-17T22:06:31.098Z,108.43
2022-08-17T22:09:07.608Z,97.32
2022-08-17T22:12:03.044Z,89.90
2022-08-17T22:14:51.834Z,89.07
2022-08-17T22:17:35.762Z,82.93
2022-08-17T22:20:22.055Z,83.40
2022-08-17T22:23:07.528Z,80.60
2022-08-17T22:26:00.241Z,87.25
2022-08-17T22:28:43.495Z,85.38
2022-08-17T22:31:33.080Z,88.57
2022-08-17T22:34:00.725Z,97.05
2022-08-17T22:36:31.392Z,89.97
2022-08-17T22:39:23.306Z,95.88
2022-08-17T22:41:54.951Z,89.78
2022-08-17T22:44:45.975Z,89.45
2022-08-17T22:47:17.122Z,86.20
2022-08-17T22:53:30.724Z,88.50
2022-08-17T22:56:17.057Z,95.40
2022-08-17T22:59:12.795Z,89.25
2022-08-17T23:01:42.323Z,90.85
2022-08-17T23:04:29.442Z,92.00
2022-08-17T23:06:56.919Z,95.30
2022-08-17T23:09:24.364Z,91.68
2022-08-17T23:11:55.931Z,87.30
2022-08-17T23:14:23.355Z,85.75
2022-08-17T23:16:52.454Z,93.72
2022-08-17T23:19:21.833Z,83.40
2022-08-17T23:21:53.957Z,81.07
2022-08-17T23:24:35.956Z,84.25
2022-08-17T23:27:08.533Z,86.20
2022-08-17T23:29:39.473Z,84.65
2022-08-17T23:32:08.500Z,84.75
2022-08-17T23:34:38.982Z,85.13
2022-08-17T23:37:07.789Z,88.78
2022-08-17T23:39:36.292Z,95.53
2022-08-17T23:42:10.812Z,87.50
2022-08-17T23:44:40.232Z,85.40
2022-08-17T23:47:10.903Z,82.47
2022-08-17T23:49:40.606Z,90.30
2022-08-17T23:52:14.992Z,85.95
2022-08-17T23:54:46.990Z,77.15
2022-08-17T23:57:19.426Z,83.18
2022-08-17T23:59:48.929Z,88.32
